Time;durP1;ratioP1;P1;durP2;ratioP2;P2;SDS_P1;SDS_P2;PMS_P1;PMS_P2;Temp;Humidity;BMP_temperature;BMP_pressure;BME280_temperature;BME280_humidity;BME280_pressure;Samples;Min_cycle;Max_cycle;Signal;HPM_P1;HPM_P2
2021/07/25 00:00:57;;;;;;;3.43;3.09;;;;;;;21.83;70.79;99760.56;;;;-61
2021/07/25 00:03:57;;;;;;;3.79;3.35;;;;;;;21.83;70.79;99762.10;;;;-61
2021/07/25 00:06:57;;;;;;;3.30;3.00;;;;;;;21.82;70.79;99764.98;;;;-60
2021/07/25 00:09:57;;;;;;;3.32;3.02;;;;;;;21.81;70.82;99757.00;;;;-60
2021/07/25 00:12:57;;;;;;;3.83;3.31;;;;;;;21.82;70.80;99759.59;;;;-61
2021/07/25 00:15:57;;;;;;;3.20;2.89;;;;;;;21.80;70.83;99756.67;;;;-60
2021/07/25 00:18:57;;;;;;;3.31;2.99;;;;;;;21.80;70.83;99749.82;;;;-61
2021/07/25 00:21:57;;;;;;;3.26;2.93;;;;;;;21.80;70.81;99749.98;;;;-60
2021/07/25 00:25:07;;;;;;;3.81;3.01;;;;;;;21.80;70.83;99752.44;;;;-60
2021/07/25 00:27:57;;;;;;;3.21;2.91;;;;;;;21.79;70.84;99749.78;;;;-60
2021/07/25 00:30:57;;;;;;;3.31;2.95;;;;;;;21.79;70.87;99748.96;;;;-60
2021/07/25 00:33:57;;;;;;;3.25;2.95;;;;;;;21.78;70.83;99756.13;;;;-62
2021/07/25 00:36:57;;;;;;;3.41;2.91;;;;;;;21.79;70.84;99766.31;;;;-60
2021/07/25 00:39:57;;;;;;;3.49;2.99;;;;;;;21.78;70.90;99765.67;;;;-60
2021/07/25 00:42:57;;;;;;;3.44;3.14;;;;;;;21.78;70.86;99767.39;;;;-61
2021/07/25 00:45:57;;;;;;;3.33;2.91;;;;;;;21.77;70.87;99769.70;;;;-60
2021/07/25 00:49:00;;;;;;;3.19;2.90;;;;;;;21.77;70.88;99764.73;;;;-60
2021/07/25 00:51:57;;;;;;;3.59;3.01;;;;;;;21.77;70.89;99770.44;;;;-61
2021/07/25 00:54:57;;;;;;;4.01;2.89;;;;;;;21.76;70.88;99766.28;;;;-61
2021/07/25 00:57:58;;;;;;;3.36;3.06;;;;;;;21.76;70.89;99766.77;;;;-61
2021/07/25 01:00:57;;;;;;;4.15;2.80;;;;;;;21.76;70.90;99771.25;;;;-60
2021/07/25 01:03:58;;;;;;;3.21;2.91;;;;;;;21.75;70.88;99764.42;;;;-60
2021/07/25 01:06:57;;;;;;;3.28;2.72;;;;;;;21.75;70.90;99757.00;;;;-60
2021/07/25 01:09:57;;;;;;;2.95;2.71;;;;;;;21.75;70.89;99749.01;;;;-60
2021/07/25 01:12:57;;;;;;;3.47;3.13;;;;;;;21.74;70.91;99748.77;;;;-60
2021/07/25 01:15:57;;;;;;;4.19;2.97;;;;;;;21.74;70.89;99742.08;;;;-60
2021/07/25 01:18:57;;;;;;;3.42;2.94;;;;;;;21.74;70.89;99746.00;;;;-60
2021/07/25 01:21:57;;;;;;;3.25;2.83;;;;;;;21.74;70.91;99740.47;;;;-60
2021/07/25 01:24:57;;;;;;;3.79;2.87;;;;;;;21.73;70.93;99736.97;;;;-62
2021/07/25 01:27:57;;;;;;;3.25;2.95;;;;;;;21.73;70.91;99737.88;;;;-60
2021/07/25 01:30:57;;;;;;;3.33;2.98;;;;;;;21.73;70.91;99731.33;;;;-60
2021/07/25 01:33:57;;;;;;;3.50;2.93;;;;;;;21.73;70.90;99736.72;;;;-61
2021/07/25 01:36:57;;;;;;;3.07;2.77;;;;;;;21.72;70.93;99740.72;;;;-61
2021/07/25 01:39:57;;;;;;;3.51;2.86;;;;;;;21.72;70.95;99738.45;;;;-61
2021/07/25 01:42:57;;;;;;;3.17;2.79;;;;;;;21.72;70.93;99739.68;;;;-61
2021/07/25 01:45:57;;;;;;;4.33;2.81;;;;;;;21.72;70.95;99744.32;;;;-60
2021/07/25 01:48:57;;;;;;;2.78;2.57;;;;;;;21.72;70.93;99750.61;;;;-61
2021/07/25 01:51:57;;;;;;;3.17;2.87;;;;;;;21.71;70.93;99748.09;;;;-60
2021/07/25 01:54:57;;;;;;;2.78;2.58;;;;;;;21.71;70.94;99744.83;;;;-61
2021/07/25 01:57:57;;;;;;;3.03;2.75;;;;;;;21.71;70.93;99746.63;;;;-60
2021/07/25 02:00:57;;;;;;;2.95;2.66;;;;;;;21.71;70.91;99752.83;;;;-61
2021/07/25 02:03:57;;;;;;;3.07;2.77;;;;;;;21.70;70.94;99752.51;;;;-61
2021/07/25 02:06:57;;;;;;;3.08;2.70;;;;;;;21.70;70.97;99752.41;;;;-60
2021/07/25 02:09:57;;;;;;;3.03;2.73;;;;;;;21.69;70.93;99750.15;;;;-60
2021/07/25 02:12:57;;;;;;;2.85;2.57;;;;;;;21.69;70.95;99755.78;;;;-61
2021/07/25 02:15:57;;;;;;;2.82;2.55;;;;;;;21.68;70.95;99753.41;;;;-60
2021/07/25 02:18:57;;;;;;;2.91;2.65;;;;;;;21.69;70.95;99750.00;;;;-60
2021/07/25 02:21:57;;;;;;;3.21;2.85;;;;;;;21.68;70.97;99750.80;;;;-60
2021/07/25 02:24:57;;;;;;;3.01;2.71;;;;;;;21.69;70.96;99755.14;;;;-60
2021/07/25 02:27:57;;;;;;;3.09;2.75;;;;;;;21.68;70.95;99757.48;;;;-60
2021/07/25 02:30:57;;;;;;;3.17;2.87;;;;;;;21.68;70.96;99765.48;;;;-60
2021/07/25 02:33:57;;;;;;;2.79;2.53;;;;;;;21.68;70.95;99765.73;;;;-60
2021/07/25 02:36:57;;;;;;;3.07;2.79;;;;;;;21.67;70.96;99765.51;;;;-60
2021/07/25 02:39:57;;;;;;;2.99;2.73;;;;;;;21.67;70.97;99762.83;;;;-61
2021/07/25 02:42:57;;;;;;;3.15;2.85;;;;;;;21.67;70.98;99773.02;;;;-61
2021/07/25 02:45:57;;;;;;;3.28;2.77;;;;;;;21.67;70.97;99773.09;;;;-61
2021/07/25 02:48:57;;;;;;;3.20;2.82;;;;;;;21.67;70.98;99773.34;;;;-60
2021/07/25 02:52:01;;;;;;;2.70;2.50;;;;;;;21.67;70.97;99776.11;;;;-60
2021/07/25 02:54:57;;;;;;;2.79;2.54;;;;;;;21.67;70.97;99781.50;;;;-60
2021/07/25 02:57:57;;;;;;;2.98;2.67;;;;;;;21.66;70.96;99785.56;;;;-60
2021/07/25 03:00:57;;;;;;;2.83;2.63;;;;;;;21.66;70.96;99783.38;;;;-60
2021/07/25 03:03:57;;;;;;;2.71;2.51;;;;;;;21.66;70.96;99782.23;;;;-60
2021/07/25 03:06:57;;;;;;;2.77;2.45;;;;;;;21.66;70.97;99776.77;;;;-60
2021/07/25 03:09:57;;;;;;;3.08;2.71;;;;;;;21.65;70.95;99782.75;;;;-61
2021/07/25 03:12:57;;;;;;;2.99;2.69;;;;;;;21.65;70.97;99790.41;;;;-60
2021/07/25 03:15:57;;;;;;;2.97;2.70;;;;;;;21.65;71.01;99788.70;;;;-60
2021/07/25 03:18:57;;;;;;;3.68;2.73;;;;;;;21.65;70.98;99785.70;;;;-60
2021/07/25 03:21:57;;;;;;;3.09;2.73;;;;;;;21.65;70.98;99786.59;;;;-61
2021/07/25 03:24:57;;;;;;;2.71;2.51;;;;;;;21.64;70.97;99780.78;;;;-61
2021/07/25 03:27:57;;;;;;;2.78;2.58;;;;;;;21.64;70.95;99773.37;;;;-60
2021/07/25 03:30:57;;;;;;;2.75;2.55;;;;;;;21.64;70.94;99775.59;;;;-60
2021/07/25 03:33:59;;;;;;;2.92;2.62;;;;;;;21.63;70.94;99773.72;;;;-60
2021/07/25 03:36:57;;;;;;;2.61;2.41;;;;;;;21.64;70.93;99769.06;;;;-60
2021/07/25 03:39:57;;;;;;;2.69;2.49;;;;;;;21.63;70.96;99768.50;;;;-60
2021/07/25 03:42:57;;;;;;;2.94;2.65;;;;;;;21.63;70.96;99767.68;;;;-60
2021/07/25 03:45:57;;;;;;;3.00;2.57;;;;;;;21.63;70.96;99759.55;;;;-61
2021/07/25 03:48:57;;;;;;;2.95;2.61;;;;;;;21.62;70.96;99754.83;;;;-60
2021/07/25 03:51:57;;;;;;;2.72;2.42;;;;;;;21.63;70.94;99757.42;;;;-60
2021/07/25 03:54:57;;;;;;;3.12;2.55;;;;;;;21.63;70.94;99757.19;;;;-60
2021/07/25 03:57:57;;;;;;;2.68;2.48;;;;;;;21.62;70.93;99761.58;;;;-61
2021/07/25 04:00:57;;;;;;;2.57;2.37;;;;;;;21.62;70.93;99758.42;;;;-62
2021/07/25 04:03:57;;;;;;;2.71;2.49;;;;;;;21.62;70.95;99756.53;;;;-61
2021/07/25 04:06:57;;;;;;;2.88;2.64;;;;;;;21.61;70.90;99758.91;;;;-61
2021/07/25 04:09:57;;;;;;;2.87;2.59;;;;;;;21.61;70.96;99763.14;;;;-60
2021/07/25 04:12:57;;;;;;;2.89;2.58;;;;;;;21.61;70.95;99766.56;;;;-60
2021/07/25 04:15:57;;;;;;;2.77;2.57;;;;;;;21.61;70.94;99772.28;;;;-61
2021/07/25 04:18:58;;;;;;;2.63;2.43;;;;;;;21.61;70.96;99776.05;;;;-60
2021/07/25 04:21:58;;;;;;;2.70;2.50;;;;;;;21.61;70.94;99778.65;;;;-60
2021/07/25 04:24:57;;;;;;;7.15;2.66;;;;;;;21.59;71.32;99779.39;;;;-62
2021/07/25 04:27:57;;;;;;;5.65;4.83;;;;;;;21.55;73.93;99779.45;;;;-61
2021/07/25 04:30:57;;;;;;;5.87;5.17;;;;;;;21.51;74.93;99781.38;;;;-61
2021/07/25 04:33:58;;;;;;;7.85;5.60;;;;;;;21.51;75.10;99780.98;;;;-60
2021/07/25 04:36:59;;;;;;;7.20;5.81;;;;;;;21.49;75.91;99782.53;;;;-61
2021/07/25 04:39:57;;;;;;;8.97;6.29;;;;;;;21.45;76.81;99783.40;;;;-60
2021/07/25 04:42:57;;;;;;;9.35;6.07;;;;;;;21.45;77.40;99784.32;;;;-61
2021/07/25 04:45:57;;;;;;;7.11;6.05;;;;;;;21.43;77.04;99792.97;;;;-61
2021/07/25 04:48:57;;;;;;;8.66;5.90;;;;;;;21.43;77.51;99800.05;;;;-61
2021/07/25 04:51:57;;;;;;;7.10;6.07;;;;;;;21.42;77.65;99799.17;;;;-60
2021/07/25 04:54:57;;;;;;;7.67;6.18;;;;;;;21.42;77.74;99797.70;;;;-61
2021/07/25 04:57:57;;;;;;;7.51;5.95;;;;;;;21.42;77.54;99797.40;;;;-61
2021/07/25 05:00:57;;;;;;;8.15;5.93;;;;;;;21.44;77.32;99798.10;;;;-61
2021/07/25 05:03:57;;;;;;;10.77;6.05;;;;;;;21.42;77.68;99796.00;;;;-60
2021/07/25 05:06:57;;;;;;;6.86;6.13;;;;;;;21.42;77.93;99795.34;;;;-60
2021/07/25 05:09:57;;;;;;;6.68;5.98;;;;;;;21.44;77.86;99798.68;;;;-61
2021/07/25 05:12:57;;;;;;;7.00;5.80;;;;;;;21.45;77.55;99796.38;;;;-61
2021/07/25 05:15:57;;;;;;;7.96;6.21;;;;;;;21.43;77.65;99804.45;;;;-61
2021/07/25 05:18:57;;;;;;;6.70;5.95;;;;;;;21.46;77.60;99807.53;;;;-62
2021/07/25 05:21:57;;;;;;;8.44;6.13;;;;;;;21.47;77.09;99809.73;;;;-61
2021/07/25 05:24:57;;;;;;;7.46;6.21;;;;;;;21.44;77.58;99810.92;;;;-62
2021/07/25 05:27:57;;;;;;;8.49;6.73;;;;;;;21.47;77.79;99813.95;;;;-61
2021/07/25 05:30:57;;;;;;;9.70;6.86;;;;;;;21.40;78.28;99816.70;;;;-60
2021/07/25 05:33:57;;;;;;;9.55;6.44;;;;;;;21.41;78.03;99819.79;;;;-60
2021/07/25 05:36:57;;;;;;;10.59;6.39;;;;;;;21.40;78.32;99821.12;;;;-61
2021/07/25 05:39:57;;;;;;;8.81;6.45;;;;;;;21.41;77.92;99818.56;;;;-62
2021/07/25 05:42:57;;;;;;;7.43;5.93;;;;;;;21.44;77.86;99818.91;;;;-61
2021/07/25 05:45:57;;;;;;;7.87;5.96;;;;;;;21.44;77.93;99820.38;;;;-61
2021/07/25 05:48:57;;;;;;;9.26;6.05;;;;;;;21.47;77.49;99814.94;;;;-61
2021/07/25 05:51:57;;;;;;;7.16;5.52;;;;;;;21.48;77.27;99813.95;;;;-60
2021/07/25 05:54:57;;;;;;;6.29;5.65;;;;;;;21.50;76.90;99819.07;;;;-60
2021/07/25 05:57:57;;;;;;;6.17;5.55;;;;;;;21.52;76.70;99816.58;;;;-62
2021/07/25 06:00:57;;;;;;;6.17;5.56;;;;;;;21.52;76.44;99816.33;;;;-61
2021/07/25 06:03:57;;;;;;;6.89;5.37;;;;;;;21.53;76.25;99821.53;;;;-61
2021/07/25 06:06:57;;;;;;;7.49;5.46;;;;;;;21.54;76.00;99824.38;;;;-60
2021/07/25 06:09:57;;;;;;;6.25;4.95;;;;;;;21.54;75.82;99824.13;;;;-60
2021/07/25 06:12:57;;;;;;;6.51;5.40;;;;;;;21.54;75.65;99825.37;;;;-60
2021/07/25 06:15:57;;;;;;;5.97;5.04;;;;;;;21.55;75.56;99828.14;;;;-60
2021/07/25 06:18:57;;;;;;;6.47;5.08;;;;;;;21.55;75.37;99820.97;;;;-61
2021/07/25 06:21:57;;;;;;;7.42;4.87;;;;;;;21.55;75.29;99821.86;;;;-60
2021/07/25 06:24:59;;;;;;;6.03;4.97;;;;;;;21.55;75.20;99822.49;;;;-60
2021/07/25 06:27:57;;;;;;;5.84;5.12;;;;;;;21.55;75.12;99824.30;;;;-61
2021/07/25 06:30:57;;;;;;;8.32;5.07;;;;;;;21.55;75.06;99829.11;;;;-60
2021/07/25 06:33:57;;;;;;;5.44;4.94;;;;;;;21.55;74.96;99830.97;;;;-60
2021/07/25 06:36:57;;;;;;;6.11;5.09;;;;;;;21.56;74.88;99831.28;;;;-60
2021/07/25 06:39:57;;;;;;;6.03;5.08;;;;;;;21.56;74.84;99829.41;;;;-52
2021/07/25 06:42:57;;;;;;;6.50;5.11;;;;;;;21.55;74.69;99831.30;;;;-52
2021/07/25 06:45:57;;;;;;;5.35;4.85;;;;;;;21.55;74.71;99831.78;;;;-52
2021/07/25 06:48:57;;;;;;;5.81;5.13;;;;;;;21.56;74.66;99837.73;;;;-52
2021/07/25 06:51:57;;;;;;;5.39;4.83;;;;;;;21.55;74.56;99841.57;;;;-65
2021/07/25 06:54:57;;;;;;;5.09;4.59;;;;;;;21.56;74.50;99843.67;;;;-65
2021/07/25 06:57:57;;;;;;;5.65;4.66;;;;;;;21.55;74.45;99841.24;;;;-65
2021/07/25 07:00:57;;;;;;;5.33;4.83;;;;;;;21.56;74.38;99839.44;;;;-65
2021/07/25 07:03:57;;;;;;;5.08;4.68;;;;;;;21.55;74.36;99836.77;;;;-52
2021/07/25 07:06:57;;;;;;;5.56;5.06;;;;;;;21.55;74.35;99837.67;;;;-51
2021/07/25 07:09:57;;;;;;;5.13;4.66;;;;;;;21.55;74.28;99837.42;;;;-51
2021/07/25 07:12:57;;;;;;;5.29;4.79;;;;;;;21.55;74.23;99836.68;;;;-51
2021/07/25 07:15:57;;;;;;;6.15;4.59;;;;;;;21.55;74.18;99829.92;;;;-52
2021/07/25 07:18:57;;;;;;;5.24;4.74;;;;;;;21.55;74.16;99829.12;;;;-59
2021/07/25 07:21:57;;;;;;;5.11;4.61;;;;;;;21.55;74.10;99825.37;;;;-60
2021/07/25 07:24:57;;;;;;;5.13;4.63;;;;;;;21.54;74.08;99819.26;;;;-59
2021/07/25 07:27:57;;;;;;;4.99;4.54;;;;;;;21.55;74.07;99817.05;;;;-60
2021/07/25 07:30:57;;;;;;;6.30;4.55;;;;;;;21.55;73.99;99820.71;;;;-60
2021/07/25 07:33:57;;;;;;;5.50;4.93;;;;;;;21.55;73.96;99820.64;;;;-60
2021/07/25 07:36:57;;;;;;;4.85;4.36;;;;;;;21.54;73.92;99818.37;;;;-60
2021/07/25 07:39:57;;;;;;;5.38;4.59;;;;;;;21.55;73.91;99819.08;;;;-61
2021/07/25 07:42:57;;;;;;;5.71;4.73;;;;;;;21.55;73.87;99820.97;;;;-61
2021/07/25 07:45:57;;;;;;;4.99;4.51;;;;;;;21.54;73.87;99824.22;;;;-53
2021/07/25 07:48:57;;;;;;;4.89;4.44;;;;;;;21.55;73.84;99830.42;;;;-52
2021/07/25 07:51:57;;;;;;;4.60;4.20;;;;;;;21.54;73.78;99825.87;;;;-52
2021/07/25 07:54:57;;;;;;;5.31;4.44;;;;;;;21.54;73.73;99830.66;;;;-52
2021/07/25 07:57:57;;;;;;;5.36;4.41;;;;;;;21.54;73.71;99832.80;;;;-51
2021/07/25 08:00:57;;;;;;;5.22;4.72;;;;;;;21.54;73.67;99831.96;;;;-52
2021/07/25 08:03:57;;;;;;;4.99;4.37;;;;;;;21.54;73.68;99832.88;;;;-52
2021/07/25 08:06:57;;;;;;;4.77;4.37;;;;;;;21.55;73.77;99830.33;;;;-49
2021/07/25 08:09:57;;;;;;;5.35;4.45;;;;;;;21.57;73.80;99830.95;;;;-51
2021/07/25 08:12:57;;;;;;;4.90;4.42;;;;;;;21.58;73.77;99828.27;;;;-50
2021/07/25 08:15:57;;;;;;;5.63;4.35;;;;;;;21.59;73.69;99822.11;;;;-53
2021/07/25 08:18:57;;;;;;;4.64;4.21;;;;;;;21.62;73.83;99820.71;;;;-57
2021/07/25 08:21:57;;;;;;;5.06;4.56;;;;;;;21.64;73.77;99822.53;;;;-64
2021/07/25 08:24:57;;;;;;;4.44;4.04;;;;;;;21.65;73.81;99822.70;;;;-63
2021/07/25 08:27:57;;;;;;;4.91;4.49;;;;;;;21.66;73.83;99818.69;;;;-58
2021/07/25 08:30:57;;;;;;;4.65;4.25;;;;;;;21.68;73.92;99814.57;;;;-53
2021/07/25 08:33:57;;;;;;;5.60;4.14;;;;;;;21.71;73.81;99814.16;;;;-49
2021/07/25 08:36:57;;;;;;;12.84;4.36;;;;;;;21.72;74.01;99807.68;;;;-57
2021/07/25 08:39:58;;;;;;;4.81;4.21;;;;;;;21.74;73.93;99807.41;;;;-50
2021/07/25 08:42:57;;;;;;;4.84;4.11;;;;;;;21.76;73.84;99808.69;;;;-57
2021/07/25 08:45:57;;;;;;;5.20;4.09;;;;;;;21.78;73.81;99806.29;;;;-59
2021/07/25 08:48:57;;;;;;;6.65;4.10;;;;;;;21.79;73.71;99811.19;;;;-58
2021/07/25 08:51:57;;;;;;;6.14;4.34;;;;;;;21.80;73.80;99811.97;;;;-54
2021/07/25 08:54:57;;;;;;;7.33;4.20;;;;;;;21.82;73.80;99812.45;;;;-63
2021/07/25 08:57:59;;;;;;;8.68;4.20;;;;;;;21.83;73.77;99801.27;;;;-62
2021/07/25 09:00:57;;;;;;;7.66;4.21;;;;;;;21.84;73.64;99805.48;;;;-51
2021/07/25 09:03:57;;;;;;;8.42;4.35;;;;;;;21.85;73.66;99807.42;;;;-52
2021/07/25 09:06:57;;;;;;;6.31;3.93;;;;;;;21.85;73.89;99811.27;;;;-51
2021/07/25 09:09:57;;;;;;;11.61;4.17;;;;;;;21.87;73.57;99807.98;;;;-52
2021/07/25 09:12:57;;;;;;;11.98;4.23;;;;;;;21.88;73.51;99804.45;;;;-51
2021/07/25 09:15:57;;;;;;;12.85;4.23;;;;;;;21.90;73.79;99804.74;;;;-52
2021/07/25 09:18:57;;;;;;;10.05;4.05;;;;;;;21.91;73.58;99804.55;;;;-51
2021/07/25 09:21:57;;;;;;;6.72;4.19;;;;;;;21.91;73.49;99809.70;;;;-54
2021/07/25 09:24:57;;;;;;;8.73;4.41;;;;;;;21.92;73.54;99811.00;;;;-70
2021/07/25 09:27:57;;;;;;;14.03;3.94;;;;;;;21.93;73.45;99813.09;;;;-59
2021/07/25 09:30:57;;;;;;;5.85;3.95;;;;;;;21.94;73.48;99808.69;;;;-61
2021/07/25 09:33:57;;;;;;;7.62;3.80;;;;;;;21.96;73.62;99813.25;;;;-54
2021/07/25 09:36:57;;;;;;;7.95;3.73;;;;;;;21.97;73.40;99817.20;;;;-62
2021/07/25 09:39:57;;;;;;;8.11;4.17;;;;;;;21.98;73.38;99815.32;;;;-52
2021/07/25 09:42:57;;;;;;;7.81;3.82;;;;;;;21.99;73.29;99811.37;;;;-50
2021/07/25 09:45:58;;;;;;;7.20;4.12;;;;;;;22.01;73.23;99816.66;;;;-60
2021/07/25 09:48:58;;;;;;;5.87;3.78;;;;;;;22.02;73.35;99811.20;;;;-61
2021/07/25 09:51:57;;;;;;;6.39;3.64;;;;;;;22.03;73.41;99810.50;;;;-54
2021/07/25 09:54:57;;;;;;;6.85;3.87;;;;;;;22.03;73.18;99811.89;;;;-53
2021/07/25 09:57:57;;;;;;;6.75;3.75;;;;;;;22.02;73.22;99809.16;;;;-54
2021/07/25 10:00:57;;;;;;;6.89;3.72;;;;;;;22.02;73.16;99805.65;;;;-54
2021/07/25 10:03:57;;;;;;;6.96;3.60;;;;;;;22.00;73.16;99804.36;;;;-54
2021/07/25 10:06:57;;;;;;;8.99;4.01;;;;;;;22.00;73.05;99805.17;;;;-53
2021/07/25 10:09:57;;;;;;;4.34;3.59;;;;;;;21.99;73.08;99810.89;;;;-53
2021/07/25 10:12:57;;;;;;;5.94;3.67;;;;;;;21.99;73.08;99818.80;;;;-54
2021/07/25 10:15:57;;;;;;;5.87;3.97;;;;;;;21.99;72.99;99819.05;;;;-53
2021/07/25 10:18:57;;;;;;;6.37;3.27;;;;;;;21.99;73.01;99821.75;;;;-53
2021/07/25 10:21:57;;;;;;;7.39;3.65;;;;;;;21.98;72.94;99815.72;;;;-54
2021/07/25 10:24:57;;;;;;;6.85;4.01;;;;;;;21.99;72.80;99814.00;;;;-54
2021/07/25 10:27:58;;;;;;;5.59;3.73;;;;;;;21.98;72.81;99812.40;;;;-54
2021/07/25 10:30:57;;;;;;;5.07;3.50;;;;;;;21.98;72.84;99815.07;;;;-54
2021/07/25 10:33:57;;;;;;;5.61;3.63;;;;;;;21.98;72.85;99817.37;;;;-54
2021/07/25 10:36:57;;;;;;;3.91;3.51;;;;;;;21.97;72.74;99816.70;;;;-53
2021/07/25 10:39:57;;;;;;;5.21;3.46;;;;;;;21.97;72.78;99815.72;;;;-54
2021/07/25 10:42:57;;;;;;;4.07;3.34;;;;;;;21.97;72.69;99815.81;;;;-54
2021/07/25 10:45:57;;;;;;;5.21;3.59;;;;;;;21.97;72.70;99805.93;;;;-53
2021/07/25 10:48:57;;;;;;;4.69;3.19;;;;;;;21.96;72.67;99816.56;;;;-54
2021/07/25 10:51:57;;;;;;;5.90;3.29;;;;;;;21.97;72.66;99812.07;;;;-53
2021/07/25 10:54:57;;;;;;;4.85;3.46;;;;;;;21.97;72.69;99811.41;;;;-54
2021/07/25 10:57:57;;;;;;;3.89;3.47;;;;;;;21.97;72.59;99810.44;;;;-54
2021/07/25 11:00:58;;;;;;;5.33;3.33;;;;;;;21.97;72.59;99808.23;;;;-53
2021/07/25 11:03:57;;;;;;;4.39;3.33;;;;;;;21.97;72.54;99809.13;;;;-53
2021/07/25 11:06:57;;;;;;;4.43;3.25;;;;;;;21.97;72.53;99812.45;;;;-66
2021/07/25 11:09:57;;;;;;;5.71;3.35;;;;;;;21.98;72.43;99804.97;;;;-66
2021/07/25 11:12:57;;;;;;;3.69;3.09;;;;;;;21.96;72.49;99802.37;;;;-65
2021/07/25 11:15:57;;;;;;;5.89;3.60;;;;;;;21.96;72.50;99798.55;;;;-66
2021/07/25 11:18:57;;;;;;;3.54;3.19;;;;;;;21.96;72.42;99795.52;;;;-54
2021/07/25 11:21:57;;;;;;;4.31;3.36;;;;;;;21.96;72.44;99789.90;;;;-54
2021/07/25 11:24:57;;;;;;;3.75;3.20;;;;;;;21.96;72.41;99788.34;;;;-53
2021/07/25 11:27:57;;;;;;;4.33;3.16;;;;;;;21.96;72.45;99788.61;;;;-54
2021/07/25 11:30:57;;;;;;;6.53;3.43;;;;;;;21.95;72.39;99794.05;;;;-53
2021/07/25 11:33:57;;;;;;;3.58;3.13;;;;;;;21.95;72.52;99793.97;;;;-50
2021/07/25 11:36:57;;;;;;;7.16;3.49;;;;;;;21.96;72.52;99790.13;;;;-47
2021/07/25 11:39:57;;;;;;;4.47;3.22;;;;;;;21.99;72.49;99791.23;;;;-49
2021/07/25 11:42:57;;;;;;;4.11;3.20;;;;;;;22.01;72.54;99787.21;;;;-49
2021/07/25 11:45:57;;;;;;;4.78;3.25;;;;;;;22.03;72.54;99789.55;;;;-50
2021/07/25 11:48:57;;;;;;;7.60;3.20;;;;;;;22.03;72.65;99785.22;;;;-57
2021/07/25 11:51:58;;;;;;;4.10;3.39;;;;;;;22.04;72.64;99777.63;;;;-56
2021/07/25 11:54:57;;;;;;;4.63;3.42;;;;;;;22.06;72.63;99773.93;;;;-54
2021/07/25 11:57:57;;;;;;;4.61;3.33;;;;;;;22.06;72.60;99769.02;;;;-54
2021/07/25 12:00:57;;;;;;;3.57;3.13;;;;;;;22.07;72.62;99765.23;;;;-52
2021/07/25 12:03:57;;;;;;;3.60;3.08;;;;;;;22.09;72.62;99763.83;;;;-51
2021/07/25 12:06:58;;;;;;;3.53;3.01;;;;;;;22.10;72.60;99758.09;;;;-51
2021/07/25 12:09:57;;;;;;;3.73;3.37;;;;;;;22.10;72.55;99759.00;;;;-51
2021/07/25 12:12:57;;;;;;;4.29;3.20;;;;;;;22.10;72.60;99753.92;;;;-50
2021/07/25 12:15:57;;;;;;;4.31;3.03;;;;;;;22.12;72.68;99754.08;;;;-50
2021/07/25 12:18:57;;;;;;;4.25;3.45;;;;;;;22.12;72.71;99754.97;;;;-53
2021/07/25 12:21:57;;;;;;;5.17;3.05;;;;;;;22.12;72.53;99755.13;;;;-51
2021/07/25 12:24:57;;;;;;;3.64;2.87;;;;;;;22.12;72.51;99759.45;;;;-51
2021/07/25 12:27:57;;;;;;;4.50;3.25;;;;;;;22.12;72.36;99758.47;;;;-51
2021/07/25 12:30:57;;;;;;;3.83;3.19;;;;;;;22.11;72.46;99748.45;;;;-56
2021/07/25 12:33:57;;;;;;;3.63;2.97;;;;;;;22.10;72.55;99747.58;;;;-56
2021/07/25 12:36:57;;;;;;;4.78;3.10;;;;;;;22.10;72.39;99740.31;;;;-57
2021/07/25 12:39:57;;;;;;;6.06;3.35;;;;;;;22.10;72.52;99747.91;;;;-56
2021/07/25 12:42:57;;;;;;;3.41;3.09;;;;;;;22.12;72.52;99743.06;;;;-61
2021/07/25 12:45:57;;;;;;;3.43;3.00;;;;;;;22.13;72.57;99743.05;;;;-60
2021/07/25 12:48:57;;;;;;;5.99;3.16;;;;;;;22.14;72.49;99731.52;;;;-52
2021/07/25 12:51:57;;;;;;;7.80;3.01;;;;;;;22.14;72.58;99734.77;;;;-53
2021/07/25 12:54:57;;;;;;;5.09;3.39;;;;;;;22.16;72.51;99726.91;;;;-48
2021/07/25 12:57:57;;;;;;;3.46;2.91;;;;;;;22.16;72.53;99724.47;;;;-50
2021/07/25 13:05:57;;;;;;;4.87;3.08;;;;;;;22.17;72.38;99722.00;;;;-51
2021/07/25 13:08:57;;;;;;;3.75;2.97;;;;;;;22.16;72.44;99723.09;;;;-51
2021/07/25 13:11:57;;;;;;;5.13;3.16;;;;;;;22.15;72.48;99715.34;;;;-51
2021/07/25 13:14:57;;;;;;;3.33;3.03;;;;;;;22.15;72.49;99724.31;;;;-51
2021/07/25 13:17:57;;;;;;;5.97;3.15;;;;;;;22.14;72.48;99724.00;;;;-51
2021/07/25 13:20:57;;;;;;;5.75;3.21;;;;;;;22.13;72.42;99719.45;;;;-51
2021/07/25 13:23:57;;;;;;;3.46;2.83;;;;;;;22.13;72.45;99720.29;;;;-60
2021/07/25 13:26:57;;;;;;;4.75;2.87;;;;;;;22.13;72.31;99720.45;;;;-51
2021/07/25 13:29:57;;;;;;;3.61;3.07;;;;;;;22.12;72.34;99711.55;;;;-51
2021/07/25 13:32:57;;;;;;;4.24;3.18;;;;;;;22.11;72.32;99713.20;;;;-52
2021/07/25 13:35:57;;;;;;;3.99;3.33;;;;;;;22.11;72.36;99713.53;;;;-52
2021/07/25 13:38:57;;;;;;;4.65;2.96;;;;;;;22.10;72.33;99706.27;;;;-52
2021/07/25 13:41:58;;;;;;;3.45;3.01;;;;;;;22.10;72.26;99711.98;;;;-52
2021/07/25 13:45:02;;;;;;;6.05;3.23;;;;;;;22.10;72.23;99710.94;;;;-52
2021/07/25 13:47:57;;;;;;;5.38;3.15;;;;;;;22.10;72.26;99718.67;;;;-52
2021/07/25 13:50:57;;;;;;;3.25;2.91;;;;;;;22.09;72.18;99718.04;;;;-52
2021/07/25 13:53:57;;;;;;;3.93;2.77;;;;;;;22.09;72.18;99725.56;;;;-52
2021/07/25 13:56:57;;;;;;;3.54;2.79;;;;;;;22.09;72.20;99726.13;;;;-52
2021/07/25 13:59:57;;;;;;;3.56;2.88;;;;;;;22.08;72.21;99728.53;;;;-52
2021/07/25 14:03:00;;;;;;;4.06;2.93;;;;;;;22.08;72.17;99729.91;;;;-52
2021/07/25 14:05:57;;;;;;;3.73;2.71;;;;;;;22.08;72.17;99730.22;;;;-53
2021/07/25 14:08:57;;;;;;;3.96;3.00;;;;;;;22.08;72.10;99731.70;;;;-57
2021/07/25 14:11:58;;;;;;;3.57;2.70;;;;;;;22.07;72.15;99726.72;;;;-57
2021/07/25 14:14:57;;;;;;;4.07;2.74;;;;;;;22.08;72.32;99721.25;;;;-51
2021/07/25 14:17:57;;;;;;;3.97;2.93;;;;;;;22.09;72.43;99728.00;;;;-56
2021/07/25 14:20:57;;;;;;;4.56;2.98;;;;;;;22.12;72.51;99729.74;;;;-60
2021/07/25 14:23:59;;;;;;;8.87;2.99;;;;;;;22.14;72.58;99730.70;;;;-60
2021/07/25 14:26:57;;;;;;;5.97;3.05;;;;;;;22.16;72.64;99731.89;;;;-59
2021/07/25 14:29:57;;;;;;;4.62;2.83;;;;;;;22.17;72.80;99722.58;;;;-60
2021/07/25 14:32:57;;;;;;;6.22;2.98;;;;;;;22.19;72.61;99723.45;;;;-60
2021/07/25 14:35:57;;;;;;;5.91;2.92;;;;;;;22.20;72.63;99719.50;;;;-57
2021/07/25 14:38:57;;;;;;;3.77;2.99;;;;;;;22.20;72.82;99716.80;;;;-60
2021/07/25 14:41:57;;;;;;;4.49;2.83;;;;;;;22.22;72.87;99714.34;;;;-59
2021/07/25 14:44:57;;;;;;;4.88;2.97;;;;;;;22.22;73.20;99718.66;;;;-55
2021/07/25 14:47:57;;;;;;;7.89;3.05;;;;;;;22.23;72.94;99720.86;;;;-50
2021/07/25 14:50:57;;;;;;;7.09;3.32;;;;;;;22.24;73.30;99722.00;;;;-51
2021/07/25 14:53:57;;;;;;;12.03;3.04;;;;;;;22.24;73.29;99720.52;;;;-57
2021/07/25 14:56:57;;;;;;;5.71;3.13;;;;;;;22.26;73.12;99728.83;;;;-52
2021/07/25 14:59:57;;;;;;;5.75;3.03;;;;;;;22.28;73.18;99724.95;;;;-56
2021/07/25 15:02:57;;;;;;;11.15;3.17;;;;;;;22.28;73.20;99718.98;;;;-52
2021/07/25 15:05:58;;;;;;;6.12;3.07;;;;;;;22.30;73.21;99713.81;;;;-52
2021/07/25 15:08:58;;;;;;;10.14;3.08;;;;;;;22.32;73.25;99711.83;;;;-50
2021/07/25 15:11:57;;;;;;;4.82;2.91;;;;;;;22.33;73.20;99711.15;;;;-52
2021/07/25 15:14:57;;;;;;;9.07;3.08;;;;;;;22.33;73.15;99716.71;;;;-50
2021/07/25 15:17:57;;;;;;;11.44;2.96;;;;;;;22.33;73.31;99705.84;;;;-54
2021/07/25 15:20:57;;;;;;;6.51;3.31;;;;;;;22.33;72.95;99698.17;;;;-53
2021/07/25 15:23:57;;;;;;;11.85;3.24;;;;;;;22.35;73.09;99697.80;;;;-54
2021/07/25 15:26:57;;;;;;;7.47;3.09;;;;;;;22.35;73.07;99692.41;;;;-52
2021/07/25 15:29:57;;;;;;;11.21;3.37;;;;;;;22.35;73.12;99693.33;;;;-53
2021/07/25 15:32:57;;;;;;;5.85;3.11;;;;;;;22.34;72.95;99689.00;;;;-57
2021/07/25 15:35:57;;;;;;;9.00;3.10;;;;;;;22.35;73.00;99689.91;;;;-52
2021/07/25 15:38:57;;;;;;;8.59;3.17;;;;;;;22.33;73.09;99694.33;;;;-52
2021/07/25 15:41:57;;;;;;;9.03;3.08;;;;;;;22.35;73.21;99695.02;;;;-58
2021/07/25 15:44:57;;;;;;;7.48;3.18;;;;;;;22.33;73.05;99693.19;;;;-52
2021/07/25 15:47:57;;;;;;;9.97;3.18;;;;;;;22.34;73.01;99684.28;;;;-48
2021/07/25 15:50:57;;;;;;;5.92;3.07;;;;;;;22.35;72.98;99680.76;;;;-48
2021/07/25 15:53:57;;;;;;;7.55;3.21;;;;;;;22.36;72.98;99673.87;;;;-51
2021/07/25 15:56:57;;;;;;;10.15;3.22;;;;;;;22.37;72.98;99675.17;;;;-54
2021/07/25 15:59:57;;;;;;;4.60;2.96;;;;;;;22.37;72.96;99676.97;;;;-55
2021/07/25 16:02:57;;;;;;;6.41;3.03;;;;;;;22.38;72.96;99677.42;;;;-51
2021/07/25 16:05:57;;;;;;;5.49;3.18;;;;;;;22.37;73.05;99682.41;;;;-52
2021/07/25 16:08:57;;;;;;;7.92;3.09;;;;;;;22.37;73.01;99686.33;;;;-49
2021/07/25 16:11:57;;;;;;;9.49;3.19;;;;;;;22.37;73.03;99684.39;;;;-62
2021/07/25 16:14:57;;;;;;;6.48;2.90;;;;;;;22.39;72.91;99683.36;;;;-63
2021/07/25 16:17:57;;;;;;;5.74;2.94;;;;;;;22.40;72.86;99686.69;;;;-61
2021/07/25 16:20:57;;;;;;;7.69;3.05;;;;;;;22.40;73.04;99686.92;;;;-61
2021/07/25 16:23:57;;;;;;;6.08;3.11;;;;;;;22.41;73.01;99684.23;;;;-62
2021/07/25 16:26:57;;;;;;;6.20;2.91;;;;;;;22.42;72.98;99687.64;;;;-52
2021/07/25 16:29:57;;;;;;;4.29;2.92;;;;;;;22.43;72.77;99684.93;;;;-51
2021/07/25 16:32:57;;;;;;;4.88;3.01;;;;;;;22.43;72.76;99681.66;;;;-51
2021/07/25 16:35:57;;;;;;;5.31;2.89;;;;;;;22.43;72.83;99684.77;;;;-58
2021/07/25 16:38:57;;;;;;;6.59;2.96;;;;;;;22.43;72.55;99685.18;;;;-50
2021/07/25 16:41:57;;;;;;;7.44;2.89;;;;;;;22.44;72.76;99686.96;;;;-55
2021/07/25 16:44:57;;;;;;;4.61;2.97;;;;;;;22.43;72.58;99687.04;;;;-49
2021/07/25 16:47:57;;;;;;;3.86;2.99;;;;;;;22.42;72.71;99686.00;;;;-47
2021/07/25 16:50:57;;;;;;;4.03;2.81;;;;;;;22.43;72.63;99685.73;;;;-47
2021/07/25 16:53:57;;;;;;;5.39;3.14;;;;;;;22.45;72.77;99688.16;;;;-53
2021/07/25 16:56:57;;;;;;;4.72;3.03;;;;;;;22.44;72.73;99692.42;;;;-52
2021/07/25 16:59:58;;;;;;;5.24;3.11;;;;;;;22.43;72.65;99687.78;;;;-51